Time;durP1;ratioP1;P1;durP2;ratioP2;P2;SDS_P1;SDS_P2;PMS_P1;PMS_P2;Temp;Humidity;BMP_temperature;BMP_pressure;BME280_temperature;BME280_humidity;BME280_pressure;Samples;Min_cycle;Max_cycle;Signal;HPM_P1;HPM_P2
2022/11/29 00:00:38;;;;;;;3.38;2.20;;;;;;;2.74;59.42;94003.50;5094052;28;20024;-77
2022/11/29 00:03:04;;;;;;;2.05;1.70;;;;;;;2.54;59.97;94009.47;5095452;28;20025;-77
2022/11/29 00:05:32;;;;;;;3.00;1.83;;;;;;;2.52;59.87;93999.22;5094044;28;20032;-77
2022/11/29 00:07:58;;;;;;;2.78;2.58;;;;;;;2.69;59.86;94006.09;5092680;28;20507;-78
2022/11/29 00:10:23;;;;;;;3.33;2.25;;;;;;;2.75;59.86;94010.28;5090983;28;20063;-77
2022/11/29 00:12:48;;;;;;;2.80;2.45;;;;;;;2.91;59.60;94014.53;5092462;28;20039;-78
2022/11/29 00:15:14;;;;;;;4.13;2.58;;;;;;;3.15;59.39;94020.88;5088960;28;20039;-77
2022/11/29 00:17:40;;;;;;;3.50;2.05;;;;;;;3.09;58.85;94006.16;5092665;28;20032;-76
2022/11/29 00:20:06;;;;;;;3.08;1.90;;;;;;;3.05;59.18;94017.44;5090364;28;20040;-78
2022/11/29 00:22:31;;;;;;;3.13;2.60;;;;;;;2.97;59.49;94014.31;5086869;28;20134;-78
2022/11/29 00:24:56;;;;;;;5.78;3.03;;;;;;;2.34;59.79;93946.41;5090084;28;20045;-78
2022/11/29 00:27:22;;;;;;;2.75;2.38;;;;;;;2.68;60.54;93999.25;5090761;28;20024;-77
2022/11/29 00:29:47;;;;;;;3.35;2.60;;;;;;;3.12;60.00;94021.41;5091836;28;20028;-78
2022/11/29 00:32:13;;;;;;;6.13;3.30;;;;;;;2.79;60.38;93985.13;5088845;28;20059;-76
2022/11/29 00:34:38;;;;;;;4.20;3.00;;;;;;;3.18;60.16;94023.00;5092265;28;20440;-78
2022/11/29 00:37:04;;;;;;;3.08;2.78;;;;;;;3.26;59.65;94021.69;5087572;28;20037;-77
2022/11/29 00:39:29;;;;;;;4.55;3.15;;;;;;;3.28;59.36;93999.31;5094300;28;20020;-77
2022/11/29 00:41:54;;;;;;;6.03;4.15;;;;;;;3.49;59.09;94026.41;5093994;28;20242;-77
2022/11/29 00:44:20;;;;;;;6.88;4.05;;;;;;;3.44;58.77;94007.22;5092328;28;20316;-76
2022/11/29 00:46:46;;;;;;;6.22;3.63;;;;;;;3.29;59.13;94026.41;5092090;28;20123;-77
2022/11/29 00:49:11;;;;;;;4.10;3.08;;;;;;;3.12;58.89;94005.66;5097021;28;20024;-76
2022/11/29 00:51:40;;;;;;;5.97;3.25;;;;;;;2.87;59.22;93976.72;5091527;28;20024;-77
2022/11/29 00:54:05;;;;;;;4.50;3.00;;;;;;;3.12;59.37;94013.53;5094431;28;20079;-78
2022/11/29 00:56:31;;;;;;;4.00;3.08;;;;;;;3.38;59.04;94033.50;5094617;28;20035;-77
2022/11/29 00:58:56;;;;;;;4.15;2.38;;;;;;;3.39;58.48;94016.69;5099812;28;20039;-77
2022/11/29 01:01:21;;;;;;;4.40;2.70;;;;;;;3.63;58.17;94021.41;5098250;28;20059;-78
2022/11/29 01:03:47;;;;;;;3.90;2.20;;;;;;;3.55;57.88;94014.06;5095968;28;20048;-78
2022/11/29 01:06:14;;;;;;;4.78;2.95;;;;;;;3.55;57.16;93999.06;5095513;28;20019;-77
2022/11/29 01:08:40;;;;;;;3.15;2.10;;;;;;;3.77;56.90;94017.22;5097260;28;20036;-77
2022/11/29 01:11:07;;;;;;;3.20;2.10;;;;;;;3.74;56.42;94017.72;5091723;28;20043;-77
2022/11/29 01:13:36;;;;;;;3.85;3.20;;;;;;;3.64;56.33;93997.47;5097483;28;20563;-78
2022/11/29 01:16:03;;;;;;;4.20;2.53;;;;;;;3.86;56.33;94012.97;5096443;28;20108;-78
2022/11/29 01:18:29;;;;;;;3.92;2.63;;;;;;;3.74;56.08;94002.72;5097920;28;20020;-77
2022/11/29 01:21:06;;;;;;;3.28;2.30;;;;;;;3.97;56.16;94009.25;5099112;28;20047;-77
2022/11/29 01:23:33;;;;;;;3.03;2.40;;;;;;;3.75;56.10;94001.69;5096904;28;20036;-77
2022/11/29 01:26:08;;;;;;;3.47;2.03;;;;;;;3.78;56.21;93998.50;5098049;28;20036;-77
2022/11/29 01:28:37;;;;;;;3.15;2.28;;;;;;;3.65;55.90;93980.66;5095061;28;20032;-76
2022/11/29 01:31:06;;;;;;;4.50;2.42;;;;;;;3.61;56.30;94003.28;5090206;28;20043;-77
2022/11/29 01:33:34;;;;;;;2.92;1.90;;;;;;;3.47;56.55;94001.44;5095440;28;20024;-77
2022/11/29 01:35:59;;;;;;;2.10;1.88;;;;;;;3.43;56.51;93995.16;5100334;28;20031;-78
2022/11/29 01:38:25;;;;;;;2.65;2.03;;;;;;;3.18;56.86;93957.31;5095300;28;20029;-77
2022/11/29 01:41:06;;;;;;;2.47;1.95;;;;;;;3.32;57.08;93995.16;5093311;28;20028;-78
2022/11/29 01:43:34;;;;;;;2.78;1.88;;;;;;;3.16;57.31;93993.56;5092930;28;20048;-77
2022/11/29 01:45:59;;;;;;;2.30;1.92;;;;;;;2.94;57.77;93993.00;5094501;28;20032;-77
2022/11/29 01:48:29;;;;;;;3.30;2.10;;;;;;;2.74;58.24;93972.75;5093223;28;20020;-76
2022/11/29 01:51:02;;;;;;;3.55;1.73;;;;;;;2.78;58.09;93958.06;5092814;28;20033;-78
2022/11/29 01:53:28;;;;;;;1.92;1.67;;;;;;;2.71;58.69;93975.88;5088778;28;20136;-77
2022/11/29 01:55:59;;;;;;;1.88;1.50;;;;;;;2.79;58.59;93985.13;5099765;28;20040;-77
2022/11/29 01:58:25;;;;;;;2.20;1.80;;;;;;;2.73;58.56;93967.75;5096752;28;20041;-77
2022/11/29 02:00:50;;;;;;;2.58;2.00;;;;;;;2.62;59.02;93974.03;5096878;28;20051;-77
2022/11/29 02:03:17;;;;;;;5.63;1.90;;;;;;;2.52;59.44;93959.84;5094222;28;20051;-77
2022/11/29 02:05:51;;;;;;;4.00;2.17;;;;;;;2.35;59.67;93967.13;5093207;28;20661;-77
2022/11/29 02:08:25;;;;;;;2.05;1.70;;;;;;;2.26;60.36;93979.16;5096852;28;20040;-77
2022/11/29 02:11:18;;;;;;;2.65;1.95;;;;;;;2.00;60.66;93940.78;5091588;28;20086;-77
2022/11/29 02:14:03;;;;;;;1.75;1.58;;;;;;;2.28;60.77;93974.47;5093286;28;20541;-78
2022/11/29 02:16:45;;;;;;;1.83;1.65;;;;;;;2.23;60.80;93971.81;5093106;28;20043;-77
2022/11/29 02:19:28;;;;;;;2.67;1.90;;;;;;;1.90;61.56;93959.09;5095309;28;20020;-77
2022/11/29 02:22:05;;;;;;;2.38;1.73;;;;;;;1.95;61.97;93969.59;5095063;28;20507;-78
2022/11/29 02:24:42;;;;;;;1.63;1.50;;;;;;;1.84;62.44;93973.19;5092582;28;20028;-77
2022/11/29 02:27:20;;;;;;;2.53;1.98;;;;;;;2.01;61.94;93964.09;5093478;28;20039;-77
2022/11/29 02:30:03;;;;;;;2.00;1.67;;;;;;;2.38;61.36;93971.88;5094741;28;20020;-77
2022/11/29 02:33:00;;;;;;;1.80;1.58;;;;;;;2.30;60.79;93975.00;5094892;28;20043;-78
2022/11/29 02:35:55;;;;;;;2.25;1.65;;;;;;;2.04;60.80;93928.72;5092743;28;20050;-78
2022/11/29 02:38:48;;;;;;;2.13;1.73;;;;;;;2.64;60.24;93982.44;5093588;28;20039;-77
2022/11/29 02:41:17;;;;;;;2.25;1.33;;;;;;;2.41;60.16;93971.34;5093231;28;20032;-78
2022/11/29 02:43:50;;;;;;;1.90;1.70;;;;;;;2.22;60.69;93972.84;5095974;28;20036;-78
2022/11/29 02:46:23;;;;;;;2.33;1.40;;;;;;;2.37;60.54;93982.63;5092026;28;20204;-77
2022/11/29 02:49:13;;;;;;;3.42;2.17;;;;;;;2.44;60.51;93973.47;5096001;28;20036;-78
2022/11/29 02:51:44;;;;;;;1.92;1.60;;;;;;;2.44;60.41;93983.19;5097870;28;20076;-77
2022/11/29 02:54:47;;;;;;;1.85;1.60;;;;;;;2.67;60.04;93981.94;5093687;28;20020;-77
2022/11/29 02:57:34;;;;;;;2.50;1.65;;;;;;;2.87;59.38;93976.72;5097067;28;20044;-78
2022/11/29 03:00:28;;;;;;;2.35;2.13;;;;;;;3.02;59.00;93978.56;5092394;28;20079;-77
2022/11/29 03:03:39;;;;;;;2.88;2.13;;;;;;;3.14;58.63;93973.81;5080478;28;21029;-77
2022/11/29 03:06:38;;;;;;;2.38;1.90;;;;;;;3.30;58.07;93963.06;5073710;28;20036;-77
2022/11/29 03:09:33;;;;;;;2.10;1.80;;;;;;;3.34;58.03;93971.19;5093669;28;20036;-76
2022/11/29 03:12:16;;;;;;;3.05;2.20;;;;;;;3.33;57.79;93954.63;5094150;28;20036;-77
2022/11/29 03:15:04;;;;;;;4.10;2.20;;;;;;;3.63;57.64;93980.13;5096112;28;20059;-77
2022/11/29 03:17:47;;;;;;;3.47;2.58;;;;;;;3.58;57.20;93974.88;5090144;28;20047;-78
2022/11/29 03:20:37;;;;;;;7.75;2.05;;;;;;;3.20;57.36;93918.38;5097106;28;20037;-77
2022/11/29 03:23:13;;;;;;;4.72;1.80;;;;;;;3.79;57.14;93988.78;5092801;28;20037;-77
2022/11/29 03:25:58;;;;;;;3.90;2.40;;;;;;;3.66;57.19;93986.72;5092364;28;20096;-77
2022/11/29 03:28:30;;;;;;;2.95;2.40;;;;;;;3.83;57.16;93995.06;5090582;28;20589;-79
2022/11/29 03:31:07;;;;;;;5.18;2.65;;;;;;;3.90;57.15;93998.25;5092806;28;20040;-78
2022/11/29 03:33:48;;;;;;;2.13;1.80;;;;;;;3.86;56.73;93970.88;5089979;28;20024;-78
2022/11/29 03:36:19;;;;;;;3.20;2.42;;;;;;;4.14;56.74;93999.22;5095739;28;20047;-77
2022/11/29 03:38:46;;;;;;;3.70;2.38;;;;;;;4.08;56.29;93971.34;5090300;28;20144;-78
2022/11/29 03:41:35;;;;;;;3.25;2.45;;;;;;;3.96;55.97;93946.38;5089404;28;20044;-78
2022/11/29 03:44:14;;;;;;;5.32;2.78;;;;;;;4.22;55.71;93976.81;5088071;28;20577;-77
2022/11/29 03:46:51;;;;;;;3.25;2.30;;;;;;;4.26;55.57;93978.63;5089886;28;20096;-77
2022/11/29 03:49:24;;;;;;;2.50;2.13;;;;;;;4.28;55.63;93996.81;5090065;28;20058;-76
2022/11/29 03:51:59;;;;;;;4.75;2.78;;;;;;;4.30;55.54;93993.94;5090061;28;20104;-77
2022/11/29 03:54:31;;;;;;;6.18;3.10;;;;;;;4.33;55.74;93993.41;5102132;28;20055;-76
2022/11/29 03:56:57;;;;;;;4.13;2.90;;;;;;;4.39;55.69;94002.84;5098503;28;20028;-76
2022/11/29 03:59:50;;;;;;;5.75;3.17;;;;;;;4.45;55.57;93996.53;5096422;28;20031;-76
2022/11/29 04:02:49;;;;;;;8.20;4.25;;;;;;;4.28;55.85;93986.28;5095430;28;20036;-77
2022/11/29 04:05:18;;;;;;;2.78;2.20;;;;;;;4.32;55.84;93989.97;5095847;28;20032;-76
2022/11/29 04:08:03;;;;;;;4.63;2.88;;;;;;;3.91;57.02;93984.03;5092764;28;20040;-76
2022/11/29 04:10:42;;;;;;;5.43;2.45;;;;;;;4.00;56.68;93973.75;5090822;28;20043;-76
2022/11/29 04:13:29;;;;;;;3.50;2.58;;;;;;;4.16;56.54;93989.19;5095186;28;20040;-77
2022/11/29 04:16:21;;;;;;;6.35;3.67;;;;;;;3.92;57.24;93993.47;5096380;28;20043;-77
2022/11/29 04:19:20;;;;;;;5.80;3.00;;;;;;;3.81;57.41;94005.09;5095218;28;20117;-77
2022/11/29 04:22:13;;;;;;;6.85;2.58;;;;;;;4.03;57.17;93999.50;5092484;28;20075;-78
2022/11/29 04:24:57;;;;;;;3.65;2.50;;;;;;;4.15;57.01;94005.28;5110138;28;20021;-76
2022/11/29 04:28:01;;;;;;;3.80;2.35;;;;;;;4.19;56.59;94007.09;5098989;28;20027;-78
2022/11/29 04:30:33;;;;;;;6.68;2.72;;;;;;;4.18;56.48;94000.25;5098179;28;20032;-76
2022/11/29 04:33:23;;;;;;;4.13;3.00;;;;;;;4.39;56.27;94013.38;5104541;28;20015;-76
2022/11/29 04:35:55;;;;;;;3.25;2.67;;;;;;;4.46;56.28;94011.25;5096396;28;20048;-77
2022/11/29 04:38:38;;;;;;;7.15;2.90;;;;;;;4.52;56.23;94008.31;5098024;28;20090;-76
2022/11/29 04:41:04;;;;;;;5.05;3.05;;;;;;;4.59;55.83;94008.03;5098919;28;20076;-76
2022/11/29 04:44:08;;;;;;;3.35;2.42;;;;;;;4.61;55.74;94005.91;5096791;28;20043;-76
2022/11/29 04:46:51;;;;;;;3.83;2.58;;;;;;;4.66;55.56;94011.16;5094472;28;20037;-77
2022/11/29 04:49:43;;;;;;;2.80;2.10;;;;;;;4.36;55.92;94000.75;5093747;28;20106;-77
2022/11/29 04:52:27;;;;;;;7.28;2.08;;;;;;;4.19;56.02;93999.22;5089392;28;20039;-77
2022/11/29 04:55:11;;;;;;;2.58;1.77;;;;;;;3.95;56.95;93987.69;5101588;28;20108;-77
2022/11/29 04:57:56;;;;;;;3.88;2.03;;;;;;;3.63;58.07;93989.84;5099594;28;20032;-77
2022/11/29 05:00:23;;;;;;;4.47;2.10;;;;;;;3.67;58.30;93996.19;5097709;28;20016;-77
2022/11/29 05:03:03;;;;;;;3.05;2.35;;;;;;;3.61;57.94;93960.41;5096103;28;20043;-77
2022/11/29 05:05:51;;;;;;;4.93;2.47;;;;;;;3.73;58.50;93995.09;5096854;28;20032;-76
2022/11/29 05:08:58;;;;;;;5.20;2.83;;;;;;;3.79;58.13;93978.25;5097325;28;20020;-77
2022/11/29 05:11:56;;;;;;;3.05;2.38;;;;;;;3.99;58.09;93988.75;5095694;28;20036;-78
2022/11/29 05:15:00;;;;;;;4.35;2.83;;;;;;;3.92;58.18;93992.69;5094467;28;20108;-78
2022/11/29 05:17:43;;;;;;;3.40;2.42;;;;;;;4.07;57.80;93988.19;5087342;28;20038;-76
2022/11/29 05:20:33;;;;;;;3.53;2.22;;;;;;;3.97;57.89;93990.03;5087256;28;20307;-77
2022/11/29 05:23:39;;;;;;;3.15;2.28;;;;;;;4.07;57.93;93990.81;5091391;28;20044;-78
2022/11/29 05:26:05;;;;;;;5.53;2.90;;;;;;;4.25;57.57;93992.88;5091881;28;20041;-77
2022/11/29 05:28:54;;;;;;;10.77;3.30;;;;;;;4.18;57.23;93976.56;5091003;28;20062;-78
2022/11/29 05:31:22;;;;;;;6.05;3.33;;;;;;;4.22;57.08;93993.41;5104287;28;20029;-78
2022/11/29 05:34:26;;;;;;;4.40;3.20;;;;;;;4.34;57.26;93995.78;5088187;28;20784;-77
2022/11/29 05:37:03;;;;;;;4.63;2.40;;;;;;;4.20;57.65;93995.53;5098980;28;20642;-77
2022/11/29 05:39:56;;;;;;;3.55;2.78;;;;;;;4.19;57.51;94001.84;5097101;28;20020;-77
2022/11/29 05:42:45;;;;;;;3.58;2.60;;;;;;;4.15;57.97;94003.44;5103337;28;20051;-77
2022/11/29 05:45:23;;;;;;;4.78;3.10;;;;;;;3.77;58.91;93999.56;5091454;28;20024;-77
2022/11/29 05:47:59;;;;;;;4.10;3.05;;;;;;;3.45;59.87;93978.03;5092546;28;20036;-77
2022/11/29 05:50:27;;;;;;;12.55;3.25;;;;;;;3.72;59.71;94009.31;5091923;28;20164;-78
2022/11/29 05:53:03;;;;;;;6.32;3.90;;;;;;;3.80;59.74;94001.69;5091192;28;20188;-77
2022/11/29 05:55:59;;;;;;;5.07;2.95;;;;;;;3.51;60.09;94005.13;5097336;28;20036;-76
2022/11/29 05:58:49;;;;;;;4.57;2.97;;;;;;;3.42;60.84;93999.63;5092858;28;20028;-78
2022/11/29 06:01:19;;;;;;;5.80;4.25;;;;;;;3.27;61.71;93997.78;5108118;28;20062;-77
2022/11/29 06:04:22;;;;;;;5.10;3.45;;;;;;;3.16;62.50;94006.69;5089900;28;20055;-77
2022/11/29 06:06:59;;;;;;;4.53;3.25;;;;;;;2.78;63.22;94004.53;5096326;28;20036;-77
2022/11/29 06:09:52;;;;;;;7.10;3.22;;;;;;;2.82;63.39;93995.09;5095705;28;20475;-77
2022/11/29 06:12:22;;;;;;;13.40;4.28;;;;;;;2.86;62.93;94001.41;5097135;28;20047;-76
2022/11/29 06:15:25;;;;;;;4.53;3.05;;;;;;;2.84;62.79;94004.28;5097314;28;20040;-77
2022/11/29 06:17:54;;;;;;;4.22;2.88;;;;;;;2.73;62.63;94009.78;5095907;28;20289;-76
2022/11/29 06:20:31;;;;;;;5.13;3.38;;;;;;;2.80;62.60;93997.97;5092858;28;20017;-77
2022/11/29 06:23:11;;;;;;;8.00;2.47;;;;;;;2.91;61.79;93998.78;5089323;28;20031;-78
2022/11/29 06:25:49;;;;;;;2.97;2.40;;;;;;;2.78;62.10;93999.28;5093231;28;20295;-78
2022/11/29 06:28:35;;;;;;;5.22;3.83;;;;;;;2.71;61.74;94002.16;5097357;28;20100;-77
2022/11/29 06:31:22;;;;;;;3.30;2.67;;;;;;;2.76;61.68;94001.38;5093349;28;20362;-77
2022/11/29 06:34:19;;;;;;;9.40;2.95;;;;;;;2.65;61.43;93978.75;5099058;28;20054;-77
2022/11/29 06:36:56;;;;;;;6.00;2.67;;;;;;;2.56;61.78;93986.34;5089649;28;20055;-78
2022/11/29 06:39:22;;;;;;;3.88;2.67;;;;;;;2.31;61.87;93947.69;5086903;28;20028;-77
2022/11/29 06:41:47;;;;;;;4.90;3.13;;;;;;;2.49;61.81;93976.13;5091237;28;21769;-77
2022/11/29 06:44:14;;;;;;;7.03;3.63;;;;;;;2.75;61.35;94000.59;5084885;28;20803;-77
2022/11/29 06:46:54;;;;;;;3.65;2.97;;;;;;;2.94;61.46;94003.50;5079149;28;20036;-77
2022/11/29 06:49:27;;;;;;;3.63;2.78;;;;;;;2.93;60.99;94005.38;5087606;28;20162;-77
2022/11/29 06:52:13;;;;;;;4.63;2.50;;;;;;;3.22;60.67;94010.91;5083805;28;20531;-77
2022/11/29 06:55:15;;;;;;;4.78;2.53;;;;;;;3.29;60.15;94016.69;5098889;28;20023;-77
2022/11/29 06:57:50;;;;;;;5.75;2.42;;;;;;;3.13;60.29;94022.22;5094768;28;20017;-77
2022/11/29 07:00:21;;;;;;;4.72;2.53;;;;;;;2.97;60.48;94013.50;5094821;28;20041;-78
2022/11/29 07:03:22;;;;;;;3.72;2.60;;;;;;;2.65;61.52;94020.78;5087164;28;20028;-78
2022/11/29 07:05:48;;;;;;;7.60;3.28;;;;;;;2.47;62.41;93996.56;5088670;28;20466;-76
2022/11/29 07:08:22;;;;;;;3.08;2.78;;;;;;;2.51;63.03;94026.50;5087235;28;20069;-77
2022/11/29 07:10:51;;;;;;;4.90;3.35;;;;;;;2.40;63.42;94019.63;5087110;28;20040;-77
2022/11/29 07:13:18;;;;;;;4.55;3.38;;;;;;;2.23;63.88;93984.94;5090630;28;20042;-77
2022/11/29 07:15:55;;;;;;;5.93;2.70;;;;;;;2.48;63.93;94021.78;5087040;28;20048;-78
2022/11/29 07:18:34;;;;;;;4.10;3.08;;;;;;;2.55;63.61;94032.03;5089531;28;20047;-77
2022/11/29 07:21:38;;;;;;;4.63;2.70;;;;;;;2.52;63.55;94012.34;5084700;28;20052;-78
2022/11/29 07:24:25;;;;;;;4.82;2.95;;;;;;;2.71;63.39;94022.38;5064296;28;20051;-77
2022/11/29 07:27:00;;;;;;;5.53;2.80;;;;;;;2.53;63.92;94034.94;5094101;28;20071;-78
2022/11/29 07:29:53;;;;;;;5.15;2.92;;;;;;;2.58;64.19;94023.66;5080527;28;20032;-78
2022/11/29 07:32:22;;;;;;;4.68;3.13;;;;;;;2.71;64.14;94031.03;5081570;28;20032;-77
2022/11/29 07:34:50;;;;;;;3.50;3.00;;;;;;;2.69;63.81;94029.72;5077266;28;20379;-76
2022/11/29 07:37:34;;;;;;;7.38;3.50;;;;;;;2.60;64.20;94021.53;5086581;28;20039;-76
2022/11/29 07:40:09;;;;;;;5.80;2.97;;;;;;;2.31;64.47;94008.06;5092513;28;20108;-77
2022/11/29 07:42:41;;;;;;;6.70;2.92;;;;;;;2.28;64.50;94026.16;5091398;28;20016;-76
2022/11/29 07:45:16;;;;;;;3.55;2.08;;;;;;;1.89;65.47;94028.31;5091100;28;20031;-76
2022/11/29 07:47:41;;;;;;;8.27;4.78;;;;;;;2.05;65.45;94022.91;5088214;28;20069;-78
2022/11/29 07:50:07;;;;;;;4.43;2.38;;;;;;;2.08;66.28;94021.59;5089667;28;20099;-76
2022/11/29 07:52:33;;;;;;;4.60;2.55;;;;;;;2.04;66.84;94010.84;5089222;28;20032;-77
2022/11/29 07:55:00;;;;;;;6.72;2.67;;;;;;;2.25;65.82;94024.84;5090146;28;20057;-76
2022/11/29 07:57:25;;;;;;;3.28;2.13;;;;;;;2.23;65.60;94024.31;5073568;28;20076;-77
2022/11/29 07:59:51;;;;;;;2.50;1.90;;;;;;;1.91;65.55;93989.53;5085481;28;20052;-77
2022/11/29 08:02:37;;;;;;;5.55;3.38;;;;;;;2.03;66.03;94021.56;5084844;28;20066;-76
2022/11/29 08:05:02;;;;;;;4.85;2.30;;;;;;;2.06;66.23;94024.47;5085643;28;20044;-76
2022/11/29 08:07:28;;;;;;;4.22;2.55;;;;;;;1.90;66.43;94004.47;5087201;28;20163;-75
2022/11/29 08:09:54;;;;;;;3.85;2.50;;;;;;;1.90;66.50;93983.50;5082932;28;20119;-78
2022/11/29 08:12:19;;;;;;;7.72;3.13;;;;;;;1.83;66.30;93980.25;5085578;28;20039;-78
2022/11/29 08:14:44;;;;;;;4.20;2.58;;;;;;;1.95;66.31;94001.09;5089762;28;20029;-78
2022/11/29 08:17:10;;;;;;;2.25;2.05;;;;;;;1.94;66.48;94004.75;5086705;28;20063;-77
2022/11/29 08:19:35;;;;;;;3.08;1.83;;;;;;;1.78;66.79;94010.91;5082967;28;20041;-76
2022/11/29 08:22:01;;;;;;;2.53;2.10;;;;;;;1.13;67.52;93922.97;5093642;28;20420;-77
2022/11/29 08:24:26;;;;;;;4.07;2.80;;;;;;;1.69;68.19;94028.94;5089408;28;20031;-77
2022/11/29 08:26:52;;;;;;;5.05;3.25;;;;;;;1.87;68.35;94031.19;5103812;28;20202;-78
2022/11/29 08:29:17;;;;;;;3.53;2.30;;;;;;;1.97;68.07;94033.88;5086277;28;20028;-77
2022/11/29 08:31:44;;;;;;;6.80;3.05;;;;;;;1.81;67.71;93995.47;5084250;28;20036;-78
2022/11/29 08:34:10;;;;;;;7.57;3.10;;;;;;;2.00;67.70;94024.72;5090036;28;20043;-77
2022/11/29 08:36:38;;;;;;;2.70;1.83;;;;;;;1.67;68.31;94026.56;5080441;28;20579;-76
2022/11/29 08:39:04;;;;;;;2.45;2.15;;;;;;;1.60;69.34;94039.13;5074876;28;20047;-77
2022/11/29 08:41:29;;;;;;;5.90;2.72;;;;;;;1.64;69.23;94037.56;5080249;28;20044;-76
2022/11/29 08:43:55;;;;;;;6.25;2.97;;;;;;;1.74;69.00;94038.69;5074932;28;20037;-77
2022/11/29 08:46:21;;;;;;;6.07;2.83;;;;;;;1.82;68.99;94044.25;5084060;28;20051;-76
2022/11/29 08:48:47;;;;;;;3.92;2.72;;;;;;;1.84;69.15;94015.16;5085110;28;20082;-76
2022/11/29 08:51:13;;;;;;;4.75;2.70;;;;;;;1.79;68.51;93999.38;5093758;28;20891;-76
2022/11/29 08:53:41;;;;;;;4.63;2.80;;;;;;;2.04;68.31;94047.56;5090743;28;20064;-76
2022/11/29 08:56:19;;;;;;;5.80;2.53;;;;;;;2.19;68.05;94043.44;5101382;28;20075;-77
2022/11/29 08:58:45;;;;;;;5.90;2.25;;;;;;;2.11;67.81;94036.81;5084488;28;20396;-77
2022/11/29 09:01:16;;;;;;;3.50;2.05;;;;;;;2.28;67.66;94047.16;5073695;28;20070;-76
2022/11/29 09:03:58;;;;;;;2.60;1.92;;;;;;;2.52;67.01;94030.72;5085158;28;20031;-78
2022/11/29 09:06:30;;;;;;;3.22;2.20;;;;;;;2.32;66.17;94022.75;5087777;28;20028;-75
2022/11/29 09:08:57;;;;;;;3.13;2.33;;;;;;;2.56;66.15;94041.50;5083949;28;20044;-77
2022/11/29 09:11:24;;;;;;;3.10;2.35;;;;;;;2.79;65.71;94038.41;5086777;28;20099;-77
2022/11/29 09:13:54;;;;;;;3.05;2.38;;;;;;;2.82;65.30;94034.50;5091277;28;20052;-77
2022/11/29 09:16:24;;;;;;;3.75;2.53;;;;;;;2.67;65.02;94013.44;5087689;28;20356;-78
2022/11/29 09:18:54;;;;;;;2.88;2.40;;;;;;;2.82;65.04;94035.28;5076483;28;20069;-77
2022/11/29 09:21:25;;;;;;;4.85;2.17;;;;;;;2.74;64.73;94008.75;5086467;28;20039;-77
2022/11/29 09:24:01;;;;;;;2.25;2.05;;;;;;;2.82;65.17;94031.88;5089727;28;20047;-77
2022/11/29 09:26:29;;;;;;;3.72;2.20;;;;;;;2.83;65.20;94028.19;5095600;28;20045;-77
2022/11/29 09:28:59;;;;;;;5.22;2.47;;;;;;;2.47;65.44;93977.41;5090882;28;20028;-76
2022/11/29 09:31:35;;;;;;;6.40;1.80;;;;;;;2.63;65.72;94007.13;5084190;28;20917;-79
2022/11/29 09:34:04;;;;;;;2.33;1.92;;;;;;;2.77;65.96;94021.34;5090568;28;20108;-77
2022/11/29 09:36:29;;;;;;;16.40;6.05;;;;;;;2.72;66.39;94022.13;5089157;28;20043;-77
2022/11/29 09:38:56;;;;;;;7.97;4.63;;;;;;;2.74;66.10;94004.28;5089096;28;20028;-77
2022/11/29 09:41:57;;;;;;;7.45;3.28;;;;;;;2.75;66.31;94002.41;5089759;28;20032;-78
2022/11/29 09:44:58;;;;;;;4.95;2.35;;;;;;;2.82;66.05;94006.38;5085602;28;20127;-77
2022/11/29 09:47:45;;;;;;;4.55;2.42;;;;;;;2.67;66.57;93998.47;5092776;28;20532;-78
2022/11/29 09:50:10;;;;;;;4.35;2.40;;;;;;;2.64;66.64;93992.97;5092773;28;20055;-76
2022/11/29 09:52:39;;;;;;;4.55;2.25;;;;;;;2.58;66.86;93993.97;5084951;28;20031;-78
2022/11/29 09:55:26;;;;;;;2.88;2.25;;;;;;;2.58;67.47;93993.97;5076859;28;20131;-78
2022/11/29 09:57:57;;;;;;;3.00;2.20;;;;;;;2.58;67.05;93972.97;5093266;28;20032;-74
2022/11/29 10:00:23;;;;;;;3.80;2.60;;;;;;;2.50;66.73;93964.53;5094910;28;20039;-78
2022/11/29 10:02:55;;;;;;;7.30;2.28;;;;;;;2.62;67.05;93982.69;5086076;28;20048;-77
2022/11/29 10:05:46;;;;;;;5.65;2.60;;;;;;;2.33;67.05;93956.09;5085292;28;20100;-77
2022/11/29 10:08:11;;;;;;;3.45;2.55;;;;;;;2.61;67.51;93983.75;5085036;28;20044;-77
2022/11/29 10:10:47;;;;;;;7.57;2.75;;;;;;;2.38;68.01;93971.88;5086362;28;20058;-76
2022/11/29 10:13:14;;;;;;;3.60;2.50;;;;;;;2.59;68.29;93979.81;5085909;28;20036;-76
2022/11/29 10:15:43;;;;;;;3.15;2.22;;;;;;;2.58;68.20;93972.97;5084975;28;20028;-77
2022/11/29 10:18:22;;;;;;;4.53;2.78;;;;;;;2.64;67.91;93977.19;5093306;28;20040;-78
2022/11/29 10:20:50;;;;;;;7.45;3.33;;;;;;;2.32;67.86;93909.13;5091856;28;20032;-77
2022/11/29 10:23:27;;;;;;;6.95;3.13;;;;;;;2.77;67.72;93960.94;5089648;28;20028;-77
2022/11/29 10:25:55;;;;;;;9.75;2.75;;;;;;;2.74;67.48;93950.97;5086144;28;20132;-77
2022/11/29 10:28:24;;;;;;;8.50;2.83;;;;;;;2.83;66.98;93937.06;5088311;28;20055;-77
2022/11/29 10:30:52;;;;;;;4.63;2.83;;;;;;;3.10;66.75;93970.94;5086781;28;20571;-77
2022/11/29 10:33:27;;;;;;;6.03;2.78;;;;;;;3.17;66.25;93958.34;5086774;28;20055;-77
2022/11/29 10:35:58;;;;;;;7.40;3.00;;;;;;;2.99;66.30;93943.06;5089860;28;20036;-79
2022/11/29 10:38:23;;;;;;;9.35;5.35;;;;;;;2.84;66.92;93933.34;5087541;28;20063;-78
2022/11/29 10:40:56;;;;;;;9.65;4.03;;;;;;;2.94;67.15;93956.22;5085945;28;20475;-78
2022/11/29 10:43:23;;;;;;;15.38;9.95;;;;;;;2.68;67.46;93923.91;5088643;28;20100;-77
2022/11/29 10:45:54;;;;;;;8.77;5.38;;;;;;;2.65;68.16;93928.88;5094000;28;20039;-77
2022/11/29 10:48:22;;;;;;;5.35;3.42;;;;;;;2.69;68.11;93927.31;5086087;28;20024;-76
2022/11/29 10:50:50;;;;;;;5.65;3.60;;;;;;;2.92;68.03;93958.34;5089100;28;20032;-76
2022/11/29 10:53:27;;;;;;;8.15;4.13;;;;;;;2.63;68.14;93921.25;5086365;28;20050;-77
2022/11/29 10:56:00;;;;;;;3.60;2.97;;;;;;;2.87;68.08;93958.31;5085771;28;20028;-77
2022/11/29 10:58:29;;;;;;;9.80;4.45;;;;;;;2.92;68.20;93956.50;5085814;28;20107;-76
2022/11/29 11:00:58;;;;;;;8.93;3.13;;;;;;;3.05;68.12;93949.91;5088266;28;20047;-77
2022/11/29 11:03:41;;;;;;;6.50;4.10;;;;;;;3.07;67.91;93949.66;5085960;28;20086;-77
2022/11/29 11:06:17;;;;;;;6.70;3.30;;;;;;;3.15;67.65;93952.56;5095776;28;20032;-78
2022/11/29 11:09:29;;;;;;;5.47;3.95;;;;;;;3.05;67.52;93954.38;5085207;28;20028;-78
2022/11/29 11:11:57;;;;;;;7.53;3.78;;;;;;;3.06;68.13;93953.34;5063915;28;20075;-76
2022/11/29 11:14:26;;;;;;;4.65;3.72;;;;;;;3.10;67.79;93943.88;5083822;28;20040;-78
2022/11/29 11:16:53;;;;;;;6.35;4.50;;;;;;;3.07;67.55;93918.94;5081590;28;20951;-76
2022/11/29 11:19:27;;;;;;;11.88;6.72;;;;;;;3.34;67.27;93958.84;5085514;28;20064;-77
2022/11/29 11:21:55;;;;;;;8.52;4.95;;;;;;;3.49;66.86;93967.78;5096432;28;20040;-78
2022/11/29 11:24:26;;;;;;;8.13;4.45;;;;;;;3.62;66.55;93956.72;5093992;28;20396;-77
2022/11/29 11:26:51;;;;;;;8.38;3.88;;;;;;;3.72;66.02;93967.25;5091656;28;20832;-77
2022/11/29 11:29:21;;;;;;;4.70;3.90;;;;;;;3.93;65.66;93974.00;5093868;28;20055;-77
2022/11/29 11:31:56;;;;;;;9.20;3.80;;;;;;;3.49;65.48;93920.44;5084576;28;20039;-77
2022/11/29 11:34:30;;;;;;;5.40;3.33;;;;;;;3.83;65.27;93971.41;5091810;28;20067;-77
2022/11/29 11:37:14;;;;;;;5.85;3.78;;;;;;;3.90;65.59;93979.81;5106397;28;20041;-77
2022/11/29 11:39:41;;;;;;;8.07;3.95;;;;;;;3.47;65.34;93917.31;5092171;28;20004;-74
2022/11/29 11:42:37;;;;;;;5.70;4.43;;;;;;;3.99;65.16;93983.47;5093462;28;20119;-76
2022/11/29 11:45:09;;;;;;;8.75;4.63;;;;;;;4.18;64.41;93981.84;5091329;28;20028;-75
2022/11/29 11:47:44;;;;;;;5.30;4.00;;;;;;;4.23;64.43;93984.44;5088924;28;20036;-75
2022/11/29 11:50:29;;;;;;;5.28;3.97;;;;;;;4.17;64.51;93980.25;5086598;28;20032;-77
2022/11/29 11:53:05;;;;;;;5.38;3.78;;;;;;;4.16;64.36;93967.38;5085942;28;20528;-76
2022/11/29 11:55:38;;;;;;;6.35;3.97;;;;;;;4.45;63.78;93970.97;5086933;28;20043;-77
2022/11/29 11:58:03;;;;;;;5.93;3.95;;;;;;;4.50;63.55;93980.69;5092516;28;20040;-77
2022/11/29 12:00:50;;;;;;;5.25;3.63;;;;;;;4.33;63.53;93978.38;5091437;28;20084;-77
2022/11/29 12:03:34;;;;;;;5.15;3.42;;;;;;;4.46;63.67;93982.28;5088778;28;20035;-77
2022/11/29 12:06:23;;;;;;;9.10;4.07;;;;;;;4.61;62.88;93963.75;5089546;28;20489;-77
2022/11/29 12:08:53;;;;;;;6.78;4.28;;;;;;;4.80;62.12;93972.59;5090641;28;20280;-78
2022/11/29 12:11:19;;;;;;;5.22;3.60;;;;;;;4.64;62.19;93952.69;5089804;28;20055;-77
2022/11/29 12:13:51;;;;;;;16.17;8.18;;;;;;;4.88;62.09;93969.41;5088506;28;20096;-77
2022/11/29 12:16:29;;;;;;;13.05;8.15;;;;;;;4.93;62.11;93966.75;5090755;28;20028;-77
2022/11/29 12:19:10;;;;;;;9.40;5.90;;;;;;;4.88;61.90;93969.41;5085370;28;20184;-76
2022/11/29 12:21:42;;;;;;;12.45;6.10;;;;;;;4.87;62.19;93961.78;5087757;28;20048;-79